createdAt,value
2022-08-16T00:00:46.166Z,19.69
2022-08-16T00:04:47.773Z,19.64
2022-08-16T00:08:52.753Z,19.62
2022-08-16T00:12:55.176Z,19.59
2022-08-16T00:17:05.388Z,19.56
2022-08-16T00:21:18.199Z,19.54
2022-08-16T00:26:33.182Z,19.51
2022-08-16T00:29:43.590Z,19.47
2022-08-16T00:33:50.159Z,19.42
2022-08-16T00:37:58.007Z,19.39
2022-08-16T00:42:01.107Z,19.38
2022-08-16T00:46:32.960Z,19.34
2022-08-16T00:50:37.603Z,19.34
2022-08-16T00:54:41.732Z,19.31
2022-08-16T00:58:46.481Z,19.30
2022-08-16T01:02:48.956Z,19.28
2022-08-16T01:07:02.066Z,19.26
2022-08-16T01:11:06.569Z,19.24
2022-08-16T01:15:09.032Z,19.21
2022-08-16T01:19:40.947Z,19.17
2022-08-16T01:24:02.254Z,19.11
2022-08-16T01:28:08.291Z,19.07
2022-08-16T01:32:10.347Z,19.05
2022-08-16T01:36:13.077Z,19.02
2022-08-16T01:40:18.547Z,19.00
2022-08-16T01:44:20.424Z,18.99
2022-08-16T01:48:26.010Z,18.98
2022-08-16T01:52:30.543Z,18.96
2022-08-16T01:56:45.836Z,18.95
2022-08-16T02:00:50.930Z,18.93
2022-08-16T02:04:54.763Z,18.91
2022-08-16T02:08:59.424Z,18.89
2022-08-16T02:13:01.402Z,18.86
2022-08-16T02:17:08.260Z,18.83
2022-08-16T02:21:12.027Z,18.81
2022-08-16T02:25:17.898Z,18.77
2022-08-16T02:29:20.901Z,18.74
2022-08-16T02:33:24.686Z,18.68
2022-08-16T02:37:52.521Z,18.65
2022-08-16T02:41:56.278Z,18.61
2022-08-16T02:45:59.987Z,18.59
2022-08-16T02:50:54.919Z,18.56
2022-08-16T02:54:27.267Z,18.54
2022-08-16T02:58:29.523Z,18.52
2022-08-16T03:02:32.479Z,18.50
2022-08-16T03:06:42.788Z,18.47
2022-08-16T03:10:59.161Z,18.45
2022-08-16T03:15:01.169Z,18.41
2022-08-16T03:19:04.918Z,18.37
2022-08-16T03:23:08.998Z,18.34
2022-08-16T03:27:10.862Z,18.31
2022-08-16T03:31:13.038Z,18.29
2022-08-16T03:35:19.062Z,18.26
2022-08-16T03:39:21.082Z,18.24
2022-08-16T03:43:24.395Z,18.18
2022-08-16T03:47:50.845Z,18.13
2022-08-16T03:52:00.223Z,18.07
2022-08-16T03:56:07.997Z,18.07
2022-08-16T04:00:36.314Z,18.04
2022-08-16T04:04:49.145Z,18.03
2022-08-16T04:08:52.759Z,18.04
2022-08-16T04:13:00.585Z,18.04
2022-08-16T04:17:05.657Z,18.03
2022-08-16T04:21:11.458Z,17.99
2022-08-16T04:25:13.396Z,17.99
2022-08-16T04:29:21.736Z,17.99
2022-08-16T04:33:27.678Z,18.01
2022-08-16T04:37:32.573Z,18.02
2022-08-16T04:41:57.079Z,18.06
2022-08-16T04:46:03.197Z,18.09
2022-08-16T04:50:14.757Z,18.12
2022-08-16T04:54:32.502Z,18.15
2022-08-16T04:58:45.192Z,18.17
2022-08-16T05:02:56.410Z,18.21
2022-08-16T05:07:00.993Z,18.24
2022-08-16T05:11:22.959Z,18.28
2022-08-16T05:15:25.880Z,18.31
2022-08-16T05:19:27.637Z,18.36
2022-08-16T05:23:55.952Z,18.39
2022-08-16T05:28:03.792Z,18.47
2022-08-16T05:32:32.030Z,18.64
2022-08-16T05:36:34.140Z,18.90
2022-08-16T05:40:39.372Z,19.10
2022-08-16T05:44:41.200Z,19.18
2022-08-16T05:48:54.642Z,19.19
2022-08-16T05:52:57.203Z,19.24
2022-08-16T05:57:00.201Z,19.28
2022-08-16T06:01:04.073Z,19.32
2022-08-16T06:05:10.784Z,19.34
2022-08-16T06:09:13.615Z,19.41
2022-08-16T06:13:17.014Z,19.46
2022-08-16T06:17:21.621Z,19.56
2022-08-16T06:21:25.001Z,19.68
2022-08-16T06:25:35.869Z,19.82
2022-08-16T06:29:39.143Z,20.08
2022-08-16T06:33:42.417Z,20.22
2022-08-16T06:37:51.290Z,20.33
2022-08-16T06:41:54.814Z,20.44
2022-08-16T06:46:37.556Z,20.59
2022-08-16T06:50:47.911Z,20.73
2022-08-16T06:54:50.394Z,20.84
2022-08-16T06:58:54.335Z,21.01
2022-08-16T07:03:00.303Z,21.18
2022-08-16T07:07:05.977Z,21.36
2022-08-16T07:11:09.195Z,21.52
2022-08-16T07:15:17.125Z,21.70
2022-08-16T07:19:21.117Z,21.94
2022-08-16T07:23:34.960Z,22.10
2022-08-16T07:27:41.848Z,22.35
2022-08-16T07:31:46.814Z,22.47
2022-08-16T07:35:52.712Z,22.70
2022-08-16T07:39:55.127Z,22.82
2022-08-16T07:43:57.563Z,22.93
2022-08-16T07:48:11.746Z,23.14
2022-08-16T07:52:18.951Z,23.26
2022-08-16T07:56:23.504Z,23.37
2022-08-16T08:00:36.703Z,23.50
2022-08-16T08:04:40.493Z,23.73
2022-08-16T08:08:50.145Z,23.95
2022-08-16T08:12:55.197Z,24.15
2022-08-16T08:17:01.932Z,24.54
2022-08-16T08:21:09.462Z,24.71
2022-08-16T08:25:13.042Z,24.89
2022-08-16T08:29:23.106Z,25.04
2022-08-16T08:33:41.563Z,24.84
2022-08-16T08:37:55.259Z,25.19
2022-08-16T08:42:03.564Z,25.41
2022-08-16T08:46:06.335Z,25.27
2022-08-16T08:50:31.551Z,25.88
2022-08-16T08:54:34.935Z,26.25
2022-08-16T08:58:40.441Z,26.35
2022-08-16T09:03:17.309Z,26.73
2022-08-16T09:07:23.725Z,27.28
2022-08-16T09:11:40.806Z,27.64
2022-08-16T09:15:44.757Z,27.65
2022-08-16T09:19:47.173Z,27.83
2022-08-16T09:23:50.387Z,28.22
2022-08-16T09:27:58.100Z,28.38
2022-08-16T09:32:07.619Z,28.27
2022-08-16T09:36:12.230Z,28.46
2022-08-16T09:40:42.505Z,28.48
2022-08-16T09:45:12.702Z,28.63
2022-08-16T09:49:06.199Z,28.38
2022-08-16T09:53:23.031Z,28.56
2022-08-16T09:57:24.626Z,28.74
2022-08-16T10:01:38.549Z,28.63
2022-08-16T10:05:46.267Z,28.82
2022-08-16T10:09:55.562Z,29.15
2022-08-16T10:13:57.984Z,28.99
2022-08-16T10:18:02.482Z,28.73
2022-08-16T10:22:23.019Z,28.37
2022-08-16T10:27:16.245Z,28.87
2022-08-16T10:30:47.360Z,29.20
2022-08-16T10:34:59.071Z,29.37
2022-08-16T10:39:00.744Z,29.41
2022-08-16T10:43:02.489Z,29.78
2022-08-16T10:47:05.936Z,30.09
2022-08-16T10:51:09.309Z,30.32
2022-08-16T10:59:44.916Z,30.25
2022-08-16T11:03:57.330Z,29.53
2022-08-16T11:07:59.398Z,29.57
2022-08-16T11:12:14.405Z,30.23
2022-08-16T11:20:42.000Z,30.54
2022-08-16T11:24:44.939Z,30.76
2022-08-16T11:33:10.856Z,31.27
2022-08-16T11:37:27.276Z,31.44
2022-08-16T11:41:35.829Z,31.75
2022-08-16T11:45:38.497Z,32.30
2022-08-16T11:49:40.222Z,32.35
2022-08-16T11:53:41.907Z,33.16
2022-08-16T11:57:43.639Z,33.69
2022-08-16T12:01:58.911Z,33.99
2022-08-16T12:06:08.125Z,34.40
2022-08-16T12:10:16.251Z,34.94
2022-08-16T12:14:17.930Z,35.09
2022-08-16T12:18:20.925Z,34.60
2022-08-16T12:22:24.884Z,33.56
2022-08-16T12:26:26.541Z,32.92
2022-08-16T12:30:33.695Z,33.34
2022-08-16T12:34:50.480Z,33.40
2022-08-16T12:38:55.273Z,35.08
2022-08-16T12:43:01.025Z,35.96
2022-08-16T12:47:22.766Z,36.62
2022-08-16T12:51:57.562Z,36.92
2022-08-16T12:55:53.975Z,37.41
2022-08-16T12:59:55.551Z,38.13
2022-08-16T13:04:19.451Z,38.80
2022-08-16T13:08:21.238Z,39.22
2022-08-16T13:12:25.210Z,39.49
2022-08-16T13:16:27.327Z,39.68
2022-08-16T13:20:31.727Z,39.66
2022-08-16T13:24:33.834Z,40.19
2022-08-16T13:28:37.076Z,40.18
2022-08-16T13:32:40.539Z,40.95
2022-08-16T13:36:49.560Z,41.07
2022-08-16T13:40:57.175Z,41.30
2022-08-16T13:44:59.145Z,39.40
2022-08-16T13:49:01.172Z,37.71
2022-08-16T13:53:04.017Z,38.58
2022-08-16T13:57:06.693Z,39.72
2022-08-16T14:01:13.647Z,40.64
2022-08-16T14:05:21.885Z,40.93
2022-08-16T14:09:28.143Z,41.17
2022-08-16T14:13:30.115Z,40.70
2022-08-16T14:18:14.992Z,39.27
2022-08-16T14:22:14.320Z,37.61
2022-08-16T14:26:21.304Z,35.60
2022-08-16T14:30:23.846Z,34.43
2022-08-16T14:34:29.125Z,33.88
2022-08-16T14:38:37.592Z,33.31
2022-08-16T14:42:44.039Z,32.76
2022-08-16T14:46:45.857Z,32.82
2022-08-16T14:50:47.465Z,32.77
2022-08-16T14:54:53.382Z,33.37
2022-08-16T14:58:55.695Z,33.89
2022-08-16T15:02:58.560Z,33.46
2022-08-16T15:07:00.166Z,33.10
2022-08-16T15:11:01.733Z,32.76
2022-08-16T15:15:12.570Z,32.42
2022-08-16T15:19:18.921Z,32.02
2022-08-16T15:23:24.103Z,31.95
2022-08-16T15:27:35.580Z,31.67
2022-08-16T15:31:37.656Z,31.35
2022-08-16T15:35:40.115Z,31.22
2022-08-16T15:39:42.167Z,31.07
2022-08-16T15:43:50.174Z,30.78
2022-08-16T15:48:08.797Z,30.81
2022-08-16T15:52:20.560Z,30.75
2022-08-16T15:56:23.581Z,30.66
2022-08-16T16:00:30.469Z,30.73
2022-08-16T16:04:34.220Z,30.64
2022-08-16T16:08:39.035Z,30.64
2022-08-16T16:12:53.086Z,30.63
2022-08-16T16:16:56.492Z,30.61
2022-08-16T16:21:01.861Z,30.50
2022-08-16T16:25:04.192Z,30.42
2022-08-16T16:29:14.360Z,30.36
2022-08-16T16:33:20.819Z,30.30
2022-08-16T16:37:23.473Z,30.15
2022-08-16T16:41:28.236Z,30.08
2022-08-16T16:45:33.556Z,29.98
2022-08-16T16:49:41.606Z,29.91
2022-08-16T16:53:56.244Z,29.84
2022-08-16T16:58:17.968Z,29.73
2022-08-16T17:02:41.507Z,29.77
2022-08-16T17:06:53.685Z,29.72
2022-08-16T17:10:59.803Z,29.71
2022-08-16T17:15:01.956Z,29.74
2022-08-16T17:19:17.468Z,29.70
2022-08-16T17:23:57.647Z,29.65
2022-08-16T17:27:50.861Z,29.52
2022-08-16T17:31:53.195Z,29.48
2022-08-16T17:35:56.087Z,29.41
2022-08-16T17:40:04.198Z,29.30
2022-08-16T17:44:12.506Z,29.27
2022-08-16T17:48:14.296Z,29.20
2022-08-16T17:52:17.426Z,29.07
2022-08-16T17:56:21.151Z,28.99
2022-08-16T18:00:24.017Z,28.94
2022-08-16T18:04:48.914Z,28.78
2022-08-16T18:08:50.084Z,28.59
2022-08-16T18:12:55.967Z,28.39
2022-08-16T18:16:57.629Z,28.20
2022-08-16T18:21:18.027Z,27.97
2022-08-16T18:25:20.864Z,27.68
2022-08-16T18:29:22.795Z,27.43
2022-08-16T18:33:26.394Z,27.19
2022-08-16T18:37:27.968Z,26.94
2022-08-16T18:41:30.541Z,26.70
2022-08-16T18:45:35.813Z,26.48
2022-08-16T18:49:38.472Z,26.23
2022-08-16T18:53:40.029Z,26.02
2022-08-16T18:57:41.883Z,25.83
2022-08-16T19:01:43.805Z,25.67
2022-08-16T19:05:49.493Z,25.50
2022-08-16T19:09:51.044Z,25.33
2022-08-16T19:13:52.704Z,25.16
2022-08-16T19:17:56.129Z,25.00
2022-08-16T19:21:58.303Z,24.87
2022-08-16T19:26:06.638Z,24.76
2022-08-16T19:30:08.930Z,24.66
2022-08-16T19:34:11.197Z,24.56
2022-08-16T19:38:13.387Z,24.49
2022-08-16T19:42:16.511Z,24.39
2022-08-16T19:46:18.149Z,24.34
2022-08-16T19:50:23.164Z,24.29
2022-08-16T19:54:40.265Z,24.25
2022-08-16T19:59:02.040Z,24.22
2022-08-16T20:03:11.117Z,24.18
2022-08-16T20:07:13.556Z,24.14
2022-08-16T20:11:15.306Z,24.10
2022-08-16T20:15:22.343Z,24.05
2022-08-16T20:19:37.027Z,24.02
2022-08-16T20:23:41.819Z,23.99
2022-08-16T20:27:43.733Z,23.96
2022-08-16T20:31:45.533Z,23.93
2022-08-16T20:35:50.101Z,23.90
2022-08-16T20:39:53.532Z,23.87
2022-08-16T20:44:15.211Z,23.86
2022-08-16T20:48:17.079Z,23.83
2022-08-16T20:52:20.111Z,23.78
2022-08-16T20:56:21.829Z,23.75
2022-08-16T21:00:23.482Z,23.73
2022-08-16T21:04:27.768Z,23.70
2022-08-16T21:08:53.142Z,23.69
2022-08-16T21:12:55.408Z,23.65
2022-08-16T21:16:57.016Z,23.62
2022-08-16T21:20:58.634Z,23.57
2022-08-16T21:25:03.675Z,23.53
2022-08-16T21:29:11.165Z,23.51
2022-08-16T21:33:18.973Z,23.46
2022-08-16T21:37:20.624Z,23.42
2022-08-16T21:41:22.229Z,23.36
2022-08-16T21:45:23.835Z,23.33
2022-08-16T21:49:25.572Z,23.30
2022-08-16T21:53:27.536Z,23.30
2022-08-16T21:57:35.486Z,23.27
2022-08-16T22:01:44.491Z,23.24
2022-08-16T22:06:00.139Z,23.20
2022-08-16T22:11:04.857Z,23.18
2022-08-16T22:14:32.060Z,23.16
2022-08-16T22:18:33.658Z,23.12
2022-08-16T22:22:36.648Z,23.10
2022-08-16T22:26:43.047Z,23.11
2022-08-16T22:30:45.611Z,23.08
2022-08-16T22:34:47.171Z,23.07
2022-08-16T22:38:53.804Z,23.06
2022-08-16T22:42:58.514Z,23.04
2022-08-16T22:47:00.147Z,23.00
2022-08-16T22:51:01.699Z,22.98
2022-08-16T22:55:03.741Z,22.98
2022-08-16T22:59:05.349Z,22.98
2022-08-16T23:03:20.484Z,22.97
2022-08-16T23:07:22.148Z,22.93
2022-08-16T23:11:25.033Z,22.93
2022-08-16T23:15:29.057Z,22.90
2022-08-16T23:19:34.102Z,22.88
2022-08-16T23:23:36.839Z,22.86
2022-08-16T23:27:38.768Z,22.85
2022-08-16T23:31:40.346Z,22.86
2022-08-16T23:35:47.683Z,22.83
2022-08-16T23:39:49.300Z,22.75
2022-08-16T23:43:56.199Z,22.72
2022-08-16T23:47:57.828Z,22.68
2022-08-16T23:52:07.639Z,22.64
2022-08-16T23:56:18.484Z,22.61
